Time;durP1;ratioP1;P1;durP2;ratioP2;P2;SDS_P1;SDS_P2;PMS_P1;PMS_P2;Temp;Humidity;BMP_temperature;BMP_pressure;BME280_temperature;BME280_humidity;BME280_pressure;Samples;Min_cycle;Max_cycle;Signal;HPM_P1;HPM_P2
2021/04/28 00:02:01;;;;;;;4.00;3.60;;;;;;;8.62;57.87;97479.03;4722435;29;102728;-81
2021/04/28 00:04:28;;;;;;;4.53;4.10;;;;;;;8.67;59.31;97482.13;4722275;29;104121;-81
2021/04/28 00:06:56;;;;;;;4.73;3.93;;;;;;;8.51;59.10;97487.00;4720852;29;103670;-82
2021/04/28 00:09:24;;;;;;;4.83;4.20;;;;;;;8.21;61.60;97489.50;4719896;29;103074;-82
2021/04/28 00:11:51;;;;;;;8.07;4.57;;;;;;;8.35;60.39;97486.59;4706360;29;103217;-81
2021/04/28 00:14:18;;;;;;;5.03;4.50;;;;;;;8.47;59.56;97485.59;4720752;29;104958;-82
2021/04/28 00:16:46;;;;;;;6.23;3.90;;;;;;;8.55;59.05;97485.78;4721736;29;103894;-82
2021/04/28 00:19:13;;;;;;;6.33;4.93;;;;;;;8.26;61.05;97486.47;4722068;29;102991;-82
2021/04/28 00:21:40;;;;;;;4.10;3.70;;;;;;;8.37;59.17;97489.94;4722487;29;102955;-82
2021/04/28 00:24:09;;;;;;;5.47;4.07;;;;;;;8.49;59.00;97483.66;4733718;29;104918;-81
2021/04/28 00:26:36;;;;;;;3.80;3.23;;;;;;;8.59;58.31;97473.19;4734838;29;103340;-82
2021/04/28 00:29:04;;;;;;;8.77;5.70;;;;;;;8.31;60.83;97479.09;4722473;29;103112;-81
2021/04/28 00:31:32;;;;;;;5.27;3.57;;;;;;;8.27;60.05;97475.88;4721901;29;104512;-81
2021/04/28 00:34:00;;;;;;;4.60;4.10;;;;;;;8.16;61.29;97479.34;4721420;29;103969;-81
2021/04/28 00:36:27;;;;;;;4.23;3.70;;;;;;;8.37;60.14;97470.66;4720747;29;103244;-81
2021/04/28 00:38:54;;;;;;;5.60;4.87;;;;;;;8.04;62.05;97476.88;4720350;29;102810;-82
2021/04/28 00:41:21;;;;;;;4.83;4.07;;;;;;;7.96;61.92;97474.03;4721373;29;103196;-81
2021/04/28 00:43:52;;;;;;;5.80;4.77;;;;;;;7.95;62.42;97464.44;4720678;29;104250;-82
2021/04/28 00:46:24;;;;;;;4.07;3.57;;;;;;;7.96;61.46;97460.88;4720322;29;103604;-82
2021/04/28 00:48:51;;;;;;;3.53;3.23;;;;;;;8.08;60.18;97463.31;4720817;29;103260;-82
2021/04/28 00:51:18;;;;;;;5.03;4.10;;;;;;;8.20;59.52;97466.75;4721300;29;103099;-82
2021/04/28 00:53:46;;;;;;;5.73;5.00;;;;;;;8.06;61.16;97469.69;4733883;29;104427;-81
2021/04/28 00:56:13;;;;;;;4.67;3.47;;;;;;;8.01;60.73;97467.44;4722258;29;104200;-82
2021/04/28 00:58:40;;;;;;;5.20;4.70;;;;;;;7.94;62.17;97462.81;4721217;29;102598;-82
2021/04/28 01:01:08;;;;;;;6.47;5.00;;;;;;;7.94;62.12;97452.28;4718419;29;105396;-81
2021/04/28 01:03:36;;;;;;;5.70;5.10;;;;;;;7.96;61.38;97453.81;4723805;29;107242;-81
2021/04/28 01:06:07;;;;;;;9.17;5.20;;;;;;;7.82;62.31;97453.25;4728571;29;103518;-82
2021/04/28 01:08:35;;;;;;;5.13;4.23;;;;;;;7.82;61.90;97451.47;4739562;29;103056;-82
2021/04/28 01:11:03;;;;;;;6.53;4.87;;;;;;;7.90;61.01;97453.47;4733155;29;102957;-82
2021/04/28 01:13:34;;;;;;;4.97;4.10;;;;;;;7.70;62.46;97448.97;4710479;29;105895;-82
2021/04/28 01:16:01;;;;;;;10.40;5.00;;;;;;;7.59;63.72;97450.69;4721731;29;103821;-82
2021/04/28 01:18:29;;;;;;;6.30;5.17;;;;;;;7.28;64.34;97450.59;4720966;29;103007;-81
2021/04/28 01:20:56;;;;;;;13.93;5.03;;;;;;;7.16;65.11;97452.38;4704902;29;104788;-82
2021/04/28 01:23:25;;;;;;;4.40;4.00;;;;;;;7.42;62.70;97448.56;4729100;29;104370;-82
2021/04/28 01:25:54;;;;;;;4.33;3.93;;;;;;;7.58;62.54;97453.44;4724515;29;104219;-82
2021/04/28 01:28:23;;;;;;;5.07;4.57;;;;;;;7.64;63.08;97452.94;4722227;29;103012;-82
2021/04/28 01:30:56;;;;;;;6.10;5.30;;;;;;;7.11;66.03;97454.56;4724661;29;102891;-82
2021/04/28 01:33:27;;;;;;;5.70;4.53;;;;;;;7.10;65.42;97442.38;4723549;29;103981;-82
2021/04/28 01:35:57;;;;;;;5.87;5.17;;;;;;;7.22;64.92;97444.03;4723520;29;103907;-82
2021/04/28 01:38:28;;;;;;;6.00;5.10;;;;;;;7.26;64.48;97450.72;4724238;29;103364;-82
2021/04/28 01:40:56;;;;;;;6.33;4.90;;;;;;;6.92;66.15;97449.06;4724818;29;103784;-82
2021/04/28 01:43:24;;;;;;;5.47;4.70;;;;;;;6.71;67.07;97445.47;4724261;29;103735;-82
2021/04/28 01:45:55;;;;;;;6.37;5.77;;;;;;;6.73;66.59;97443.56;4722985;29;103792;-82
2021/04/28 01:48:23;;;;;;;8.33;6.13;;;;;;;6.36;68.39;97446.34;4723838;29;103250;-82
2021/04/28 01:50:53;;;;;;;9.30;5.83;;;;;;;6.62;67.31;97448.78;4712864;29;103384;-82
2021/04/28 01:53:23;;;;;;;7.37;4.53;;;;;;;6.83;65.45;97449.75;4723136;29;103847;-82
2021/04/28 01:55:54;;;;;;;5.97;3.97;;;;;;;7.07;64.77;97452.28;4728753;29;103559;-82
2021/04/28 01:58:41;;;;;;;3.77;3.40;;;;;;;7.19;63.44;97457.41;4723831;29;103102;-82
2021/04/28 02:01:18;;;;;;;7.53;4.93;;;;;;;7.05;66.13;97455.03;4718513;29;103433;-82
2021/04/28 02:03:47;;;;;;;7.47;5.40;;;;;;;6.90;67.03;97450.97;4731065;29;103911;-82
2021/04/28 02:06:15;;;;;;;7.50;5.37;;;;;;;6.84;66.29;97440.94;4714782;29;105533;-82
2021/04/28 02:08:43;;;;;;;6.33;5.07;;;;;;;6.58;68.35;97439.44;4687950;29;102699;-82
2021/04/28 02:11:13;;;;;;;7.43;5.67;;;;;;;6.56;68.45;97442.22;4730439;29;102926;-82
2021/04/28 02:13:45;;;;;;;6.93;4.87;;;;;;;6.77;66.30;97442.34;4755832;29;105130;-82
2021/04/28 02:16:40;;;;;;;7.03;5.40;;;;;;;6.79;66.73;97448.34;4741571;29;104449;-82
2021/04/28 02:19:11;;;;;;;5.77;5.17;;;;;;;6.86;65.91;97446.91;4739962;29;102622;-82
2021/04/28 02:21:45;;;;;;;8.17;5.97;;;;;;;6.39;68.84;97435.63;4742302;29;103207;-83
2021/04/28 02:24:36;;;;;;;8.90;6.00;;;;;;;6.41;68.76;97438.94;4727522;29;104423;-82
2021/04/28 02:27:04;;;;;;;7.27;5.47;;;;;;;6.53;67.58;97436.34;4739883;29;104298;-82
2021/04/28 02:29:35;;;;;;;5.77;5.17;;;;;;;6.55;67.45;97437.06;4740498;29;102912;-83
2021/04/28 02:32:02;;;;;;;8.50;4.53;;;;;;;6.36;68.93;97427.13;4755527;29;103308;-82
2021/04/28 02:34:48;;;;;;;5.70;4.70;;;;;;;6.48;67.69;97430.63;4740549;29;104088;-82
2021/04/28 02:37:44;;;;;;;6.60;5.67;;;;;;;6.47;67.26;97428.94;4730252;29;105610;-82
2021/04/28 02:40:30;;;;;;;6.17;4.20;;;;;;;6.53;66.26;97416.19;4755342;29;103165;-82
2021/04/28 02:42:59;;;;;;;7.30;5.47;;;;;;;6.56;67.41;97420.38;4754285;29;103102;-81
2021/04/28 02:45:30;;;;;;;8.57;5.20;;;;;;;6.55;66.80;97424.78;4735259;29;107125;-82
2021/04/28 02:48:00;;;;;;;6.43;4.70;;;;;;;6.46;68.05;97432.53;4721170;29;105262;-82
2021/04/28 02:50:31;;;;;;;6.43;4.87;;;;;;;6.55;67.06;97431.81;4746676;29;103190;-82
2021/04/28 02:53:08;;;;;;;7.63;5.00;;;;;;;6.63;66.95;97432.91;4748034;29;102734;-82
2021/04/28 02:55:36;;;;;;;8.23;5.60;;;;;;;6.35;70.03;97428.91;4744212;29;104124;-82
2021/04/28 02:58:05;;;;;;;6.40;4.90;;;;;;;6.36;68.57;97425.34;4761416;29;103639;-82
2021/04/28 03:00:42;;;;;;;5.90;5.07;;;;;;;6.40;68.15;97432.03;4754585;29;103353;-82
2021/04/28 03:03:13;;;;;;;8.47;5.33;;;;;;;6.28;69.41;97424.25;4741920;29;102918;-83
2021/04/28 03:05:42;;;;;;;7.47;5.57;;;;;;;6.23;69.79;97429.81;4741678;29;104026;-82
2021/04/28 03:08:13;;;;;;;7.90;6.10;;;;;;;6.29;68.54;97424.13;4741044;29;103248;-82
2021/04/28 03:10:40;;;;;;;7.97;5.87;;;;;;;5.96;71.48;97431.88;4739835;29;103207;-82
2021/04/28 03:13:08;;;;;;;6.83;6.20;;;;;;;6.09;70.90;97424.78;4741274;29;102850;-82
2021/04/28 03:15:36;;;;;;;7.53;5.90;;;;;;;6.19;69.16;97422.31;4740162;29;106055;-82
2021/04/28 03:18:07;;;;;;;8.37;6.73;;;;;;;5.90;72.25;97427.06;4738263;29;114428;-82
2021/04/28 03:20:36;;;;;;;8.30;6.53;;;;;;;5.75;72.43;97430.81;4740519;29;103135;-85
2021/04/28 03:23:04;;;;;;;8.63;5.23;;;;;;;6.00;69.98;97420.22;4748025;29;103147;-85
2021/04/28 03:25:32;;;;;;;7.80;5.10;;;;;;;6.01;71.19;97419.25;4739228;29;106081;-83
2021/04/28 03:28:03;;;;;;;7.63;6.20;;;;;;;5.88;71.97;97428.13;4723089;29;103892;-84
2021/04/28 03:30:31;;;;;;;9.43;7.00;;;;;;;5.72;72.61;97423.16;4739032;29;103208;-83
2021/04/28 03:32:59;;;;;;;11.03;6.77;;;;;;;5.80;72.35;97426.06;4738250;29;103352;-84
2021/04/28 03:35:46;;;;;;;8.37;6.03;;;;;;;5.99;70.31;97421.16;4726368;29;104719;-84
2021/04/28 03:38:36;;;;;;;7.60;5.37;;;;;;;6.08;69.28;97423.13;4732564;29;104309;-85
2021/04/28 03:41:06;;;;;;;5.70;5.07;;;;;;;6.03;69.86;97427.88;4738928;29;103058;-83
2021/04/28 03:43:34;;;;;;;6.07;4.67;;;;;;;6.07;69.60;97418.81;4720901;29;103155;-84
2021/04/28 03:46:03;;;;;;;8.10;5.77;;;;;;;6.08;68.96;97417.03;4726150;29;103889;-83
2021/04/28 03:48:40;;;;;;;10.17;6.73;;;;;;;6.03;70.13;97420.00;4737310;29;103676;-88
2021/04/28 03:51:08;;;;;;;7.63;5.50;;;;;;;5.84;71.40;97422.25;4747098;29;103249;-78
2021/04/28 03:53:55;;;;;;;8.93;5.60;;;;;;;5.96;69.97;97413.53;4736705;29;103125;-79
2021/04/28 03:56:24;;;;;;;6.40;4.60;;;;;;;6.01;69.13;97416.63;4737538;29;104015;-81
2021/04/28 03:58:53;;;;;;;6.40;5.77;;;;;;;5.89;71.50;97419.34;4741308;29;105268;-78
2021/04/28 04:01:21;;;;;;;7.40;5.67;;;;;;;5.78;72.15;97420.09;4739454;29;103077;-82
2021/04/28 04:03:49;;;;;;;6.63;5.20;;;;;;;5.72;71.78;97418.78;4739602;29;103631;-79
2021/04/28 04:06:46;;;;;;;7.07;5.60;;;;;;;5.74;71.30;97423.88;4735019;29;104925;-78
2021/04/28 04:09:39;;;;;;;7.20;6.00;;;;;;;5.82;71.44;97435.47;4725457;29;103736;-77
2021/04/28 04:12:07;;;;;;;6.77;5.87;;;;;;;5.85;71.54;97439.69;4735786;29;102929;-81
2021/04/28 04:14:47;;;;;;;6.47;5.87;;;;;;;5.78;71.92;97443.69;4709752;29;104328;-80
2021/04/28 04:17:15;;;;;;;10.03;6.20;;;;;;;5.74;72.04;97442.22;4703887;29;103292;-80
2021/04/28 04:19:46;;;;;;;9.40;6.40;;;;;;;5.76;72.09;97446.41;4704016;29;106367;-82
2021/04/28 04:22:16;;;;;;;6.70;6.03;;;;;;;5.81;72.00;97444.28;4723387;29;103106;-78
2021/04/28 04:24:51;;;;;;;12.80;7.60;;;;;;;5.66;73.08;97449.81;4739137;29;102905;-74
2021/04/28 04:27:18;;;;;;;10.33;7.10;;;;;;;5.55;74.01;97447.97;4726207;29;103839;-87
2021/04/28 04:30:12;;;;;;;7.97;6.17;;;;;;;5.47;74.64;97445.06;4704993;29;107056;-85
2021/04/28 04:33:00;;;;;;;6.57;5.40;;;;;;;5.68;72.94;97454.00;4738789;29;103398;-80
2021/04/28 04:35:46;;;;;;;10.70;6.30;;;;;;;5.82;72.22;97450.38;4735893;29;103160;-84
2021/04/28 04:38:36;;;;;;;8.40;5.47;;;;;;;5.85;72.80;97442.31;4713013;29;104960;-85
2021/04/28 04:41:23;;;;;;;6.13;4.50;;;;;;;6.00;71.23;97437.75;4703633;29;107005;-87
2021/04/28 04:44:26;;;;;;;7.50;4.47;;;;;;;6.05;71.19;97441.69;4722357;29;102976;-85
2021/04/28 04:46:58;;;;;;;5.30;4.00;;;;;;;6.10;71.13;97433.47;4738544;29;103384;-86
2021/04/28 04:49:26;;;;;;;10.93;5.90;;;;;;;6.23;69.94;97437.69;4737308;29;104367;-86
2021/04/28 04:51:56;;;;;;;5.10;4.33;;;;;;;6.26;70.35;97437.47;4720005;29;106050;-87
2021/04/28 04:54:24;;;;;;;6.03;5.10;;;;;;;6.34;70.36;97437.72;4732476;29;103985;-88
2021/04/28 04:56:51;;;;;;;7.33;5.50;;;;;;;6.28;71.66;97432.13;4724168;29;103301;-87
2021/04/28 04:59:19;;;;;;;6.60;5.17;;;;;;;6.41;70.64;97440.72;4734903;29;104391;-87
2021/04/28 05:01:46;;;;;;;7.07;5.83;;;;;;;6.50;70.76;97436.59;4737341;29;103866;-86
2021/04/28 05:04:13;;;;;;;8.10;6.83;;;;;;;6.52;71.84;97442.53;4737469;29;103149;-87
2021/04/28 05:06:41;;;;;;;9.00;6.80;;;;;;;6.48;71.89;97434.09;4740021;29;102960;-86
2021/04/28 05:09:08;;;;;;;10.90;8.47;;;;;;;6.45;72.18;97438.72;4738269;29;104394;-87
2021/04/28 05:11:35;;;;;;;11.03;9.03;;;;;;;6.60;70.57;97448.88;4738032;29;104984;-87
2021/04/28 05:14:02;;;;;;;17.43;11.53;;;;;;;6.66;71.51;97447.56;4738619;29;102618;-88
2021/04/28 05:16:30;;;;;;;12.73;8.67;;;;;;;6.70;71.53;97454.28;4738865;29;103083;-87
2021/04/28 05:18:58;;;;;;;18.30;11.57;;;;;;;6.76;72.05;97443.31;4740472;29;103371;-87
2021/04/28 05:21:25;;;;;;;12.97;9.97;;;;;;;6.76;72.17;97448.56;4737633;29;103378;-88
2021/04/28 05:23:53;;;;;;;11.90;9.23;;;;;;;6.98;70.97;97449.44;4729534;29;103426;-86
2021/04/28 05:26:34;;;;;;;15.67;8.73;;;;;;;7.15;69.49;97445.50;4736681;29;103148;-87
2021/04/28 05:29:01;;;;;;;13.60;8.70;;;;;;;7.31;68.53;97451.19;4748463;29;104202;-87
2021/04/28 05:31:28;;;;;;;15.43;10.10;;;;;;;7.25;69.26;97451.69;4736580;29;103731;-86
2021/04/28 05:33:55;;;;;;;13.80;9.23;;;;;;;7.35;69.32;97455.28;4737371;29;103074;-86
2021/04/28 05:36:22;;;;;;;10.07;8.37;;;;;;;7.32;70.08;97452.88;4737894;29;103194;-86
2021/04/28 05:38:58;;;;;;;8.43;6.90;;;;;;;7.56;68.24;97450.94;4736448;29;105749;-86
2021/04/28 05:41:27;;;;;;;7.30;6.27;;;;;;;7.84;67.49;97444.28;4737291;29;103753;-85
2021/04/28 05:43:54;;;;;;;9.10;6.57;;;;;;;8.05;67.33;97444.34;4737350;29;103098;-87
2021/04/28 05:46:21;;;;;;;7.23;6.27;;;;;;;8.23;67.13;97445.47;4748215;29;103196;-87
2021/04/28 05:48:48;;;;;;;7.97;5.60;;;;;;;8.39;66.99;97445.91;4756083;29;104797;-86
2021/04/28 05:51:15;;;;;;;8.87;6.23;;;;;;;8.50;66.93;97448.50;4741287;29;104006;-88
2021/04/28 05:53:42;;;;;;;8.40;7.60;;;;;;;8.53;67.13;97448.22;4734512;29;106202;-87
2021/04/28 05:56:09;;;;;;;7.00;6.30;;;;;;;8.69;67.64;97453.88;4734402;29;102980;-87
2021/04/28 05:58:37;;;;;;;13.17;8.53;;;;;;;8.81;68.20;97445.91;4735103;29;107190;-87
2021/04/28 06:01:04;;;;;;;8.67;7.47;;;;;;;8.91;67.97;97452.06;4735219;29;103877;-87
2021/04/28 06:03:32;;;;;;;13.07;7.40;;;;;;;8.97;67.65;97447.09;4747457;29;103164;-87
2021/04/28 06:05:59;;;;;;;10.67;7.97;;;;;;;9.07;67.79;97452.41;4748367;29;103133;-87
2021/04/28 06:08:26;;;;;;;12.23;10.00;;;;;;;9.12;67.55;97450.22;4750154;29;108285;-86
2021/04/28 06:10:56;;;;;;;11.83;9.10;;;;;;;9.19;66.61;97454.00;4741705;29;103716;-86
2021/04/28 06:13:23;;;;;;;17.00;11.17;;;;;;;9.38;66.97;97451.44;4734838;29;103157;-86
2021/04/28 06:15:51;;;;;;;12.20;9.13;;;;;;;9.56;65.83;97454.28;4738031;29;103454;-87
2021/04/28 06:18:20;;;;;;;16.23;9.83;;;;;;;9.55;65.48;97442.88;4724759;29;103756;-87
2021/04/28 06:20:47;;;;;;;12.77;9.27;;;;;;;9.73;65.34;97445.72;4731783;29;104002;-86
2021/04/28 06:23:15;;;;;;;11.33;8.37;;;;;;;9.95;63.89;97448.13;4750515;29;103364;-86
2021/04/28 06:25:43;;;;;;;12.27;9.27;;;;;;;10.18;63.30;97440.81;4733740;29;103221;-88
2021/04/28 06:28:10;;;;;;;11.17;8.90;;;;;;;10.31;62.70;97436.91;4730915;29;104375;-86
2021/04/28 06:30:37;;;;;;;12.63;10.17;;;;;;;10.40;62.01;97435.25;4727571;29;103494;-89
2021/04/28 06:33:05;;;;;;;16.33;9.37;;;;;;;10.45;61.92;97438.28;4733215;29;103008;-85
2021/04/28 06:35:34;;;;;;;11.57;8.87;;;;;;;10.74;61.43;97439.09;4743527;29;103629;-87
2021/04/28 06:38:02;;;;;;;12.63;8.73;;;;;;;10.93;60.32;97435.56;4750943;29;104720;-85
2021/04/28 06:40:29;;;;;;;15.23;11.00;;;;;;;11.06;60.96;97441.38;4723342;29;107195;-85
2021/04/28 06:42:57;;;;;;;18.40;10.70;;;;;;;11.10;60.07;97436.63;4749167;29;103115;-89
2021/04/28 06:45:24;;;;;;;11.73;9.97;;;;;;;11.33;59.88;97438.78;4731444;29;103106;-86
2021/04/28 06:47:55;;;;;;;10.30;8.30;;;;;;;11.50;58.97;97442.47;4733297;29;107227;-87
2021/04/28 06:50:24;;;;;;;14.13;9.43;;;;;;;11.50;58.29;97431.88;4746592;29;110191;-86
2021/04/28 06:52:53;;;;;;;15.40;9.83;;;;;;;11.70;58.20;97437.94;4726388;29;102938;-86
2021/04/28 06:55:20;;;;;;;10.57;8.20;;;;;;;11.86;57.50;97438.09;4724585;29;103509;-84
2021/04/28 06:57:56;;;;;;;8.53;7.63;;;;;;;12.14;57.01;97437.91;4727012;29;105092;-82
2021/04/28 07:00:24;;;;;;;9.77;8.20;;;;;;;12.44;56.94;97434.03;4736870;29;104366;-87
2021/04/28 07:02:52;;;;;;;12.20;8.37;;;;;;;12.59;55.82;97435.16;4744214;29;103334;-86
2021/04/28 07:05:20;;;;;;;14.60;8.93;;;;;;;12.80;56.16;97429.50;4738310;29;103162;-86
2021/04/28 07:07:49;;;;;;;8.43;7.57;;;;;;;12.95;55.31;97438.56;4752075;29;103849;-86
2021/04/28 07:10:16;;;;;;;8.07;7.20;;;;;;;13.04;54.50;97428.84;4749709;29;103866;-85
2021/04/28 07:12:45;;;;;;;13.80;8.33;;;;;;;13.02;54.83;97436.97;4751666;29;103072;-85
2021/04/28 07:15:12;;;;;;;11.87;8.93;;;;;;;13.13;53.44;97431.44;4727378;29;103097;-86
2021/04/28 07:17:40;;;;;;;12.67;9.70;;;;;;;13.16;53.17;97439.09;4746877;29;103389;-85
2021/04/28 07:20:09;;;;;;;13.67;9.60;;;;;;;13.33;53.04;97427.53;4735462;29;103899;-85
2021/04/28 07:22:39;;;;;;;13.27;9.30;;;;;;;13.65;52.69;97436.66;4727159;29;103190;-84
2021/04/28 07:25:08;;;;;;;9.13;8.17;;;;;;;13.76;52.47;97439.00;4740820;29;104321;-84
2021/04/28 07:27:35;;;;;;;10.77;9.50;;;;;;;13.87;51.54;97436.88;4740076;29;105052;-85
2021/04/28 07:30:04;;;;;;;8.40;7.37;;;;;;;14.24;51.50;97441.78;4735921;29;104267;-84
2021/04/28 07:32:31;;;;;;;14.40;9.70;;;;;;;14.05;51.32;97438.59;4737101;29;103220;-84
2021/04/28 07:34:58;;;;;;;10.90;9.67;;;;;;;14.11;49.89;97441.44;4735899;29;102829;-85
2021/04/28 07:37:26;;;;;;;9.77;7.57;;;;;;;14.76;50.10;97439.72;4737734;29;104224;-84
2021/04/28 07:39:56;;;;;;;9.03;7.83;;;;;;;15.17;48.85;97437.81;4737522;29;103774;-84
2021/04/28 07:42:24;;;;;;;9.47;8.40;;;;;;;15.45;48.73;97436.41;4743191;29;103771;-85
2021/04/28 07:44:53;;;;;;;11.73;9.60;;;;;;;15.72;47.91;97431.69;4740153;29;103173;-83
2021/04/28 07:47:20;;;;;;;12.17;8.50;;;;;;;15.79;46.54;97429.97;4734967;29;104956;-85
2021/04/28 07:50:09;;;;;;;14.93;10.17;;;;;;;15.71;46.16;97424.69;4741040;29;107192;-85
2021/04/28 07:52:36;;;;;;;14.17;9.97;;;;;;;16.05;44.91;97431.34;4736555;29;103235;-84
2021/04/28 07:55:04;;;;;;;15.23;9.67;;;;;;;16.44;45.18;97431.25;4737444;29;103056;-85
2021/04/28 07:57:33;;;;;;;11.53;9.50;;;;;;;16.29;45.44;97430.34;4728308;29;108086;-83
2021/04/28 08:00:00;;;;;;;11.10;9.80;;;;;;;16.50;44.70;97425.22;4735470;29;103374;-84
2021/04/28 08:02:28;;;;;;;10.20;9.20;;;;;;;16.88;44.64;97422.59;4735795;29;103193;-85
2021/04/28 08:04:55;;;;;;;15.50;9.87;;;;;;;17.45;43.30;97437.03;4735116;29;102792;-79
2021/04/28 08:07:23;;;;;;;14.57;9.10;;;;;;;17.70;44.56;97422.41;4739426;29;104082;-81
2021/04/28 08:09:56;;;;;;;14.27;10.27;;;;;;;17.88;43.50;97430.84;4734130;29;105390;-80
2021/04/28 08:12:24;;;;;;;11.30;9.77;;;;;;;17.59;42.41;97424.72;4733465;29;103296;-78
2021/04/28 08:14:52;;;;;;;11.30;9.73;;;;;;;18.20;42.64;97420.72;4736339;29;103103;-86
2021/04/28 08:17:23;;;;;;;8.60;7.80;;;;;;;18.90;41.93;97420.81;4732361;29;104431;-86
2021/04/28 08:19:50;;;;;;;15.33;10.20;;;;;;;18.72;41.14;97423.97;4734042;29;103817;-87
2021/04/28 08:22:18;;;;;;;10.97;8.67;;;;;;;19.16;41.56;97414.84;4717172;29;103947;-86
2021/04/28 08:24:45;;;;;;;12.88;9.05;;;;;;;19.77;40.33;97424.72;4739044;29;103049;-86
2021/04/28 08:27:13;;;;;;;11.32;10.20;;;;;;;19.73;40.43;97420.78;4721116;29;103342;-85
2021/04/28 08:29:40;;;;;;;15.30;10.23;;;;;;;19.70;39.93;97418.50;4710339;29;105911;-82
2021/04/28 08:32:08;;;;;;;13.77;9.98;;;;;;;20.00;40.15;97425.22;4739544;29;103787;-81
2021/04/28 08:34:37;;;;;;;10.23;9.18;;;;;;;19.94;40.60;97420.66;4731544;29;104240;-81
2021/04/28 08:37:04;;;;;;;11.15;10.00;;;;;;;20.53;38.79;97412.81;4735689;29;104670;-82
2021/04/28 08:39:31;;;;;;;15.88;11.07;;;;;;;20.45;39.04;97414.88;4741547;29;103343;-81
2021/04/28 08:41:59;;;;;;;14.43;10.30;;;;;;;20.80;38.47;97421.72;4741391;29;103191;-83
2021/04/28 08:44:30;;;;;;;15.48;9.75;;;;;;;21.50;38.47;97413.00;4747017;29;103225;-82
2021/04/28 08:46:57;;;;;;;12.68;9.80;;;;;;;21.71;38.21;97409.25;4733825;29;103369;-82
2021/04/28 08:49:27;;;;;;;9.15;8.23;;;;;;;22.65;37.38;97401.41;4735317;29;103892;-81
2021/04/28 08:51:57;;;;;;;13.00;11.48;;;;;;;22.02;37.25;97404.00;4738458;29;103211;-82
2021/04/28 08:54:45;;;;;;;12.57;10.48;;;;;;;22.16;37.00;97405.59;4735619;29;103365;-80
2021/04/28 08:57:13;;;;;;;13.65;11.45;;;;;;;21.11;37.87;97403.16;4735590;29;103979;-80
2021/04/28 08:59:41;;;;;;;12.93;10.95;;;;;;;21.87;37.08;97398.03;4741545;29;103731;-81
2021/04/28 09:02:16;;;;;;;13.68;10.40;;;;;;;22.23;36.87;97395.59;4730271;29;103547;-81
2021/04/28 09:05:09;;;;;;;16.27;11.57;;;;;;;21.94;36.06;97398.88;4739542;29;103281;-80
2021/04/28 09:07:37;;;;;;;17.50;12.68;;;;;;;22.29;36.07;97397.44;4735169;29;104479;-80
2021/04/28 09:10:08;;;;;;;15.77;11.82;;;;;;;21.87;36.24;97388.13;4734901;29;103204;-80
2021/04/28 09:12:35;;;;;;;16.15;11.90;;;;;;;21.91;37.25;97391.22;4735655;29;103292;-84
2021/04/28 09:15:06;;;;;;;15.57;12.15;;;;;;;22.56;37.32;97391.91;4742467;29;103266;-82
2021/04/28 09:17:52;;;;;;;15.20;11.43;;;;;;;22.51;35.71;97387.97;4721316;29;107225;-80
2021/04/28 09:20:44;;;;;;;15.02;11.70;;;;;;;23.16;35.88;97391.22;4736970;29;103771;-79
2021/04/28 09:23:36;;;;;;;16.65;13.00;;;;;;;22.95;35.11;97386.25;4746868;29;103110;-81
2021/04/28 09:26:22;;;;;;;16.05;11.23;;;;;;;23.74;34.02;97389.00;4737765;29;103100;-79
2021/04/28 09:29:06;;;;;;;12.85;11.40;;;;;;;23.48;35.16;97387.41;4734872;29;104338;-79
2021/04/28 09:31:34;;;;;;;17.02;12.30;;;;;;;23.50;34.02;97387.19;4736676;29;104399;-82
2021/04/28 09:34:03;;;;;;;18.13;12.95;;;;;;;23.10;34.36;97386.75;4736528;29;102773;-81
2021/04/28 09:36:34;;;;;;;12.60;11.30;;;;;;;24.20;33.89;97385.75;4735242;29;103272;-80
2021/04/28 09:39:07;;;;;;;13.88;11.63;;;;;;;24.27;33.11;97391.88;4731275;29;108514;-80
2021/04/28 09:41:38;;;;;;;13.75;11.63;;;;;;;24.05;34.12;97382.59;4735448;29;104695;-80
2021/04/28 09:44:27;;;;;;;16.02;12.13;;;;;;;22.38;32.52;97377.31;4734139;29;103414;-82
2021/04/28 09:46:57;;;;;;;10.60;9.52;;;;;;;24.08;33.57;97376.75;4728996;29;103744;-81
2021/04/28 09:49:41;;;;;;;12.70;11.00;;;;;;;23.89;33.96;97372.44;4746943;29;103869;-81
2021/04/28 09:52:10;;;;;;;12.00;10.77;;;;;;;23.65;32.18;97375.00;4738300;29;103571;-85
2021/04/28 09:54:38;;;;;;;13.48;11.63;;;;;;;21.11;33.47;97376.31;4739696;29;102811;-82
2021/04/28 09:57:05;;;;;;;15.75;12.40;;;;;;;20.87;34.77;97373.41;4722541;29;103133;-82
2021/04/28 09:59:44;;;;;;;15.90;11.93;;;;;;;21.89;34.71;97374.50;4738336;29;104902;-81
2021/04/28 10:02:24;;;;;;;13.45;11.10;;;;;;;22.93;31.51;97356.81;4735840;29;107063;-83
2021/04/28 10:04:52;;;;;;;13.02;10.75;;;;;;;23.42;32.34;97364.06;4731815;29;103118;-81
2021/04/28 10:07:26;;;;;;;11.85;10.75;;;;;;;24.46;30.79;97363.78;4737632;29;103455;-82
2021/04/28 10:09:55;;;;;;;16.98;10.70;;;;;;;22.87;30.58;97359.59;4717765;29;106068;-81
2021/04/28 10:12:22;;;;;;;11.82;10.70;;;;;;;22.72;33.12;97364.47;4730849;29;103722;-81
2021/04/28 10:14:49;;;;;;;14.05;11.13;;;;;;;23.37;30.75;97357.66;4727127;29;103020;-81
2021/04/28 10:17:18;;;;;;;12.60;10.45;;;;;;;22.85;30.68;97356.31;4720002;29;103223;-84
2021/04/28 10:19:48;;;;;;;16.52;11.38;;;;;;;21.96;31.77;97353.75;4728579;29;104745;-85
2021/04/28 10:22:18;;;;;;;15.20;11.35;;;;;;;21.77;32.32;97346.59;4735916;29;103460;-86
2021/04/28 10:24:49;;;;;;;11.32;9.48;;;;;;;23.66;31.23;97346.97;4734789;29;103381;-86
2021/04/28 10:27:17;;;;;;;13.32;10.88;;;;;;;24.21;30.52;97339.66;4737115;29;104582;-85
2021/04/28 10:29:46;;;;;;;11.68;10.48;;;;;;;23.04;29.29;97331.06;4727970;29;103508;-87
2021/04/28 10:32:15;;;;;;;14.18;10.75;;;;;;;22.45;31.12;97336.91;4736103;29;103718;-87
2021/04/28 10:34:49;;;;;;;11.02;9.07;;;;;;;23.61;30.39;97327.97;4730483;29;103101;-87
2021/04/28 10:37:20;;;;;;;18.05;11.50;;;;;;;23.20;31.86;97333.19;4718746;29;104284;-86
2021/04/28 10:39:49;;;;;;;13.63;11.32;;;;;;;22.98;32.39;97329.25;4735006;29;104385;-85
2021/04/28 10:42:36;;;;;;;13.93;11.75;;;;;;;22.91;30.52;97331.16;4721436;29;104103;-84
2021/04/28 10:45:04;;;;;;;13.07;11.77;;;;;;;23.46;30.23;97318.63;4725037;29;103152;-85
2021/04/28 10:47:35;;;;;;;12.23;10.05;;;;;;;23.06;30.64;97320.88;4721506;29;103428;-85
2021/04/28 10:50:12;;;;;;;15.68;11.43;;;;;;;23.12;30.91;97320.00;4736169;29;104458;-81
2021/04/28 10:52:45;;;;;;;14.63;9.82;;;;;;;23.30;31.55;97317.31;4718366;29;104408;-86
2021/04/28 10:55:37;;;;;;;12.02;10.77;;;;;;;23.28;30.68;97323.97;4732511;29;102989;-86
2021/04/28 10:58:35;;;;;;;12.68;10.77;;;;;;;21.84;32.62;97328.56;4728985;29;104440;-85
2021/04/28 11:01:34;;;;;;;14.70;11.82;;;;;;;23.47;29.73;97315.69;4735667;29;103890;-88
2021/04/28 11:04:11;;;;;;;11.52;9.85;;;;;;;23.79;30.64;97310.97;4747890;29;105909;-85
2021/04/28 11:06:49;;;;;;;10.75;8.52;;;;;;;24.71;29.40;97306.91;4746766;29;103267;-86
2021/04/28 11:09:22;;;;;;;9.52;8.15;;;;;;;25.37;28.32;97312.00;4738578;29;104177;-86
2021/04/28 11:11:54;;;;;;;10.27;9.27;;;;;;;24.17;28.98;97305.25;4716342;29;104488;-86
2021/04/28 11:14:29;;;;;;;14.32;10.45;;;;;;;22.99;29.89;97306.66;4734339;29;103883;-89
2021/04/28 11:17:26;;;;;;;11.68;10.48;;;;;;;22.31;31.17;97295.84;4735085;29;103243;-83
2021/04/28 11:20:19;;;;;;;13.30;10.32;;;;;;;21.79;32.64;97299.63;4731691;29;102986;-83
2021/04/28 11:22:47;;;;;;;12.30;10.07;;;;;;;22.03;31.59;97300.78;4731911;29;105852;-86
2021/04/28 11:25:20;;;;;;;11.68;10.18;;;;;;;22.25;31.96;97298.56;4735891;29;103741;-83
2021/04/28 11:28:00;;;;;;;13.73;10.52;;;;;;;21.18;32.78;97307.31;4733576;29;103253;-85
2021/04/28 11:30:36;;;;;;;12.45;10.07;;;;;;;21.26;32.98;97308.94;4717040;29;104359;-85
2021/04/28 11:33:19;;;;;;;13.23;10.18;;;;;;;21.17;33.48;97304.84;4734671;29;104161;-83
2021/04/28 11:36:15;;;;;;;12.23;10.40;;;;;;;21.44;32.59;97301.06;4731868;29;104295;-88
2021/04/28 11:38:47;;;;;;;11.57;9.77;;;;;;;21.88;32.74;97292.19;4733578;29;103095;-84
2021/04/28 11:41:16;;;;;;;11.55;9.23;;;;;;;22.19;32.43;97300.25;4718249;29;104238;-87
2021/04/28 11:43:47;;;;;;;12.30;9.35;;;;;;;22.37;31.74;97292.25;4733179;29;103875;-87
2021/04/28 11:46:16;;;;;;;11.32;9.32;;;;;;;22.18;32.37;97297.78;4737882;29;103942;-85